createdAt,value
2018-07-26T00:30:33.787Z,21.18
2018-07-26T02:26:15.008Z,19.30
2018-07-26T02:28:41.657Z,19.39
2018-07-26T02:31:08.635Z,19.42
2018-07-26T02:57:57.182Z,19.66
2018-07-26T03:00:23.802Z,19.56
2018-07-26T03:02:50.872Z,19.41
2018-07-26T03:05:17.452Z,19.36
2018-07-26T03:07:43.987Z,19.36
2018-07-26T03:10:11.022Z,19.35
2018-07-26T03:12:37.590Z,19.27
2018-07-26T03:15:04.162Z,19.23
2018-07-26T03:17:30.705Z,19.42
2018-07-26T03:19:57.598Z,19.66
2018-07-26T03:22:24.666Z,19.77
2018-07-26T03:24:51.238Z,19.61
2018-07-26T03:27:18.205Z,19.46
2018-07-26T03:29:44.765Z,19.31
2018-07-26T03:32:11.305Z,19.17
2018-07-26T03:34:37.887Z,19.10
2018-07-26T03:37:04.811Z,19.09
2018-07-26T03:39:31.341Z,19.08
2018-07-26T03:41:58.862Z,19.14
2018-07-26T03:44:25.422Z,19.15
2018-07-26T03:47:30.383Z,19.24
2018-07-26T03:49:56.933Z,19.32
2018-07-26T03:52:23.899Z,19.35
2018-07-26T03:54:50.457Z,19.35
2018-07-26T03:57:17.247Z,19.36
2018-07-26T03:59:43.908Z,19.30
2018-07-26T04:02:10.885Z,19.27
2018-07-26T04:04:37.416Z,19.15
2018-07-26T04:07:06.955Z,19.05
2018-07-26T04:09:33.519Z,18.84
2018-07-26T04:12:00.378Z,18.79
2018-07-26T04:14:27.964Z,18.94
2018-07-26T04:16:54.537Z,18.93
2018-07-26T04:19:21.068Z,19.03
2018-07-26T04:21:48.057Z,19.24
2018-07-26T04:24:15.135Z,19.36
2018-07-26T04:26:41.732Z,19.50
2018-07-26T04:29:08.760Z,19.66
2018-07-26T04:31:36.100Z,20.10
2018-07-26T04:34:02.614Z,20.48
2018-07-26T04:36:30.069Z,20.27
2018-07-26T04:38:56.964Z,19.95
2018-07-26T04:41:23.532Z,19.86
2018-07-26T04:43:51.501Z,19.99
2018-07-26T04:46:18.028Z,20.09
2018-07-26T04:48:44.585Z,20.11
2018-07-26T04:51:12.104Z,20.14
2018-07-26T04:53:38.670Z,20.17
2018-07-26T04:56:05.245Z,20.26
2018-07-26T04:58:32.117Z,20.33
2018-07-26T05:00:58.643Z,20.45
2018-07-26T05:03:25.191Z,20.57
2018-07-26T05:05:52.932Z,20.77
2018-07-26T05:08:22.541Z,20.90
2018-07-26T05:10:49.314Z,21.17
2018-07-26T05:13:16.484Z,21.26
2018-07-26T05:15:43.039Z,21.31
2018-07-26T05:18:09.687Z,21.53
2018-07-26T05:20:36.731Z,21.67
2018-07-26T05:23:03.368Z,21.71
2018-07-26T05:25:30.003Z,21.87
2018-07-26T05:27:56.957Z,22.10
2018-07-26T05:30:23.485Z,22.58
2018-07-26T05:42:41.858Z,22.56
2018-07-26T06:08:28.969Z,23.64
2018-07-26T06:10:55.493Z,23.65
2018-07-26T06:13:22.590Z,23.78
2018-07-26T06:15:49.101Z,23.92
2018-07-26T06:53:41.749Z,27.91
2018-07-26T06:56:08.343Z,27.77
2018-07-26T06:58:36.461Z,27.72
2018-07-26T07:01:03.024Z,27.72
2018-07-26T07:03:29.597Z,27.83
2018-07-26T07:05:56.661Z,27.95
2018-07-26T07:08:23.227Z,28.01
2018-07-26T07:10:50.982Z,28.17
2018-07-26T07:13:19.325Z,28.34
2018-07-26T07:15:46.000Z,28.59
2018-07-26T07:18:12.631Z,28.71
2018-07-26T07:20:39.499Z,28.82
2018-07-26T07:23:06.066Z,28.91
2018-07-26T07:25:33.538Z,29.04
